Time;durP1;ratioP1;P1;durP2;ratioP2;P2;SDS_P1;SDS_P2;PMS_P1;PMS_P2;Temp;Humidity;BMP_temperature;BMP_pressure;BME280_temperature;BME280_humidity;BME280_pressure;Samples;Min_cycle;Max_cycle;Signal;HPM_P1;HPM_P2
2023/10/11 00:00:35;;;;;;;4.50;2.10;;;22.60;46.50;;;;;;5109464;27;45510;-72
2023/10/11 00:03:14;;;;;;;2.90;2.05;;;22.60;46.60;;;;;;5109504;27;45359;-72
2023/10/11 00:05:43;;;;;;;5.25;2.72;;;22.50;46.50;;;;;;5109569;27;45276;-73
2023/10/11 00:08:10;;;;;;;4.82;2.20;;;22.50;46.50;;;;;;5109748;27;45441;-71
2023/10/11 00:10:44;;;;;;;3.88;2.15;;;22.50;46.50;;;;;;5109202;27;46710;-72
2023/10/11 00:13:11;;;;;;;4.53;2.10;;;22.50;46.60;;;;;;5109304;27;45440;-72
2023/10/11 00:15:38;;;;;;;3.88;2.30;;;22.50;46.60;;;;;;5109290;27;45398;-72
2023/10/11 00:18:05;;;;;;;4.07;2.55;;;22.40;47.10;;;;;;5109516;27;45410;-73
2023/10/11 00:20:47;;;;;;;2.40;1.85;;;22.40;46.50;;;;;;5109126;27;46722;-72
2023/10/11 00:23:15;;;;;;;4.60;2.70;;;22.40;46.50;;;;;;5109122;27;46050;-72
2023/10/11 00:25:44;;;;;;;3.50;2.17;;;22.40;46.50;;;;;;5109243;27;45335;-72
2023/10/11 00:28:13;;;;;;;3.10;2.15;;;22.40;46.60;;;;;;5109481;27;45640;-72
2023/10/11 00:30:40;;;;;;;4.70;2.33;;;22.30;46.50;;;;;;5108937;27;46285;-72
2023/10/11 00:33:08;;;;;;;3.35;1.98;;;22.30;46.60;;;;;;5108898;27;45377;-72
2023/10/11 00:35:41;;;;;;;5.25;2.33;;;22.30;47.20;;;;;;5108983;27;45324;-72
2023/10/11 00:38:11;;;;;;;4.15;1.88;;;22.30;46.70;;;;;;5109105;27;45404;-72
2023/10/11 00:40:43;;;;;;;4.85;2.38;;;22.30;46.60;;;;;;5108932;27;46655;-72
2023/10/11 00:43:14;;;;;;;3.85;2.30;;;22.30;46.60;;;;;;5108921;27;45397;-73
2023/10/11 00:45:41;;;;;;;3.33;2.17;;;22.20;46.60;;;;;;5108567;27;45429;-73
2023/10/11 00:48:11;;;;;;;5.18;2.17;;;22.20;46.60;;;;;;5108978;27;45433;-74
2023/10/11 00:50:37;;;;;;;3.22;2.38;;;22.20;46.70;;;;;;5108584;27;46714;-73
2023/10/11 00:53:05;;;;;;;4.00;2.47;;;22.20;46.60;;;;;;5108153;27;45331;-71
2023/10/11 00:55:31;;;;;;;4.05;2.47;;;22.20;46.60;;;;;;5108374;27;45318;-73
2023/10/11 00:58:00;;;;;;;3.65;2.10;;;22.20;46.60;;;;;;5108914;27;45427;-73
2023/10/11 01:00:28;;;;;;;4.28;2.13;;;22.10;46.60;;;;;;5108739;27;46348;-72
2023/10/11 01:02:55;;;;;;;4.07;2.22;;;22.10;46.60;;;;;;5108700;27;45298;-72
2023/10/11 01:05:24;;;;;;;3.60;2.10;;;22.10;46.70;;;;;;5108391;27;45321;-73
2023/10/11 01:07:51;;;;;;;4.85;2.03;;;22.10;46.70;;;;;;5108759;27;45365;-72
2023/10/11 01:10:20;;;;;;;4.53;2.55;;;22.10;46.80;;;;;;5108350;27;46699;-73
2023/10/11 01:12:47;;;;;;;5.03;2.15;;;22.10;46.70;;;;;;5108459;27;45522;-72
2023/10/11 01:15:19;;;;;;;3.72;2.25;;;22.00;46.70;;;;;;5108396;27;45307;-73
2023/10/11 01:17:46;;;;;;;4.97;2.13;;;22.00;46.60;;;;;;5108538;27;45461;-72
2023/10/11 01:20:14;;;;;;;2.95;2.20;;;22.00;46.70;;;;;;5108183;27;46400;-74
2023/10/11 01:22:43;;;;;;;3.85;1.85;;;22.00;46.70;;;;;;5108246;27;45344;-72
2023/10/11 01:25:12;;;;;;;4.22;2.42;;;22.00;46.80;;;;;;5108228;27;45274;-72
2023/10/11 01:27:44;;;;;;;2.83;2.00;;;22.00;46.80;;;;;;5108374;27;45293;-72
2023/10/11 01:30:12;;;;;;;2.45;1.73;;;22.00;46.80;;;;;;5108035;27;45327;-72
2023/10/11 01:32:41;;;;;;;4.13;2.30;;;21.90;46.70;;;;;;5108113;27;45389;-73
2023/10/11 01:35:08;;;;;;;2.67;2.05;;;21.90;46.70;;;;;;5108131;27;45322;-73
2023/10/11 01:37:41;;;;;;;5.13;2.17;;;21.90;46.70;;;;;;5108148;27;45423;-72
2023/10/11 01:40:11;;;;;;;3.67;2.05;;;21.90;46.80;;;;;;5107542;27;45256;-72
2023/10/11 01:42:41;;;;;;;2.47;2.15;;;21.90;46.80;;;;;;5107987;27;45613;-72
2023/10/11 01:45:09;;;;;;;4.25;2.50;;;21.90;47.10;;;;;;5107903;27;45315;-72
2023/10/11 01:47:35;;;;;;;3.47;2.30;;;21.90;46.80;;;;;;5107450;27;45345;-71
2023/10/11 01:50:02;;;;;;;3.47;2.17;;;21.80;46.80;;;;;;5107485;27;45497;-72
2023/10/11 01:52:34;;;;;;;3.97;2.28;;;21.80;46.80;;;;;;5107968;27;45326;-72
2023/10/11 01:55:01;;;;;;;3.40;2.35;;;21.80;46.80;;;;;;5107666;27;45356;-73
2023/10/11 01:57:29;;;;;;;3.05;2.03;;;21.80;46.90;;;;;;5107887;27;45710;-73
2023/10/11 01:59:56;;;;;;;5.50;2.47;;;21.80;46.80;;;;;;5107626;27;46314;-73
2023/10/11 02:02:27;;;;;;;4.45;2.00;;;21.80;46.90;;;;;;5107142;27;45327;-72
2023/10/11 02:04:57;;;;;;;3.63;2.05;;;21.80;46.80;;;;;;5107777;27;45362;-73
2023/10/11 02:07:24;;;;;;;3.38;2.03;;;21.70;46.80;;;;;;5107971;27;45187;-72
2023/10/11 02:09:51;;;;;;;3.78;2.13;;;21.70;46.80;;;;;;5107353;27;45192;-73
2023/10/11 02:12:18;;;;;;;4.32;2.30;;;21.70;46.90;;;;;;5107712;27;45444;-73
2023/10/11 02:14:47;;;;;;;2.95;2.35;;;21.70;46.80;;;;;;5107503;27;45320;-73
2023/10/11 02:17:17;;;;;;;3.42;2.10;;;21.70;46.90;;;;;;5107713;27;45196;-73
2023/10/11 02:19:45;;;;;;;3.72;2.22;;;21.70;47.00;;;;;;5107099;27;45438;-73
2023/10/11 02:22:12;;;;;;;4.28;2.08;;;21.70;47.00;;;;;;5107365;27;45410;-72
2023/10/11 02:24:38;;;;;;;4.20;2.13;;;21.60;47.00;;;;;;5107386;27;45378;-73
2023/10/11 02:27:17;;;;;;;2.72;1.55;;;21.60;47.00;;;;;;5107458;27;45239;-72
2023/10/11 02:29:44;;;;;;;3.25;2.00;;;21.60;47.00;;;;;;5107283;27;47011;-72
2023/10/11 02:32:13;;;;;;;3.25;1.90;;;21.60;47.60;;;;;;5106848;27;45315;-73
2023/10/11 02:34:41;;;;;;;3.50;1.77;;;21.60;47.10;;;;;;5107347;27;45291;-72
2023/10/11 02:37:10;;;;;;;3.80;2.33;;;21.60;47.10;;;;;;5107366;27;45589;-73
2023/10/11 02:39:43;;;;;;;7.30;2.60;;;21.60;47.10;;;;;;5106925;27;45456;-72
2023/10/11 02:42:09;;;;;;;3.67;2.10;;;21.50;47.00;;;;;;5106681;27;45355;-71
2023/10/11 02:44:39;;;;;;;3.90;1.95;;;21.50;47.00;;;;;;5106696;27;45494;-72
2023/10/11 02:47:06;;;;;;;3.85;2.05;;;21.50;47.00;;;;;;5107228;27;45237;-72
2023/10/11 02:49:35;;;;;;;4.22;2.45;;;21.50;47.00;;;;;;5107313;27;45276;-72
2023/10/11 02:52:06;;;;;;;5.25;2.28;;;21.50;47.00;;;;;;5106991;27;45299;-73
2023/10/11 02:54:38;;;;;;;4.55;2.30;;;21.50;47.00;;;;;;5107200;27;45337;-72
2023/10/11 02:57:06;;;;;;;4.22;2.22;;;21.40;47.00;;;;;;5107190;27;45555;-72
2023/10/11 02:59:33;;;;;;;6.63;2.28;;;21.50;47.20;;;;;;5106781;27;45255;-73
2023/10/11 03:02:04;;;;;;;3.22;2.20;;;21.40;47.10;;;;;;5106674;27;45468;-73
2023/10/11 03:04:34;;;;;;;2.97;1.83;;;21.40;47.10;;;;;;5106893;27;45317;-73
2023/10/11 03:07:03;;;;;;;2.95;2.20;;;21.40;47.10;;;;;;5107299;27;45365;-73
2023/10/11 03:09:33;;;;;;;5.60;2.42;;;21.40;47.10;;;;;;5106645;27;45450;-73
2023/10/11 03:12:05;;;;;;;4.97;2.33;;;21.30;47.70;;;;;;5106725;27;45311;-73
2023/10/11 03:14:40;;;;;;;4.65;1.98;;;21.30;47.10;;;;;;5108124;27;45273;-73
2023/10/11 03:17:13;;;;;;;5.22;2.25;;;21.40;47.20;;;;;;5110018;27;45338;-72
2023/10/11 03:19:42;;;;;;;3.08;2.30;;;21.30;47.10;;;;;;5110177;27;46750;-72
2023/10/11 03:22:11;;;;;;;5.35;2.25;;;21.30;47.10;;;;;;5110432;27;45544;-72
2023/10/11 03:24:40;;;;;;;4.55;2.30;;;21.30;47.10;;;;;;5110304;27;45314;-72
2023/10/11 03:27:13;;;;;;;3.90;2.45;;;21.30;47.10;;;;;;5110330;27;45540;-72
2023/10/11 03:29:40;;;;;;;4.70;2.00;;;21.20;47.10;;;;;;5110022;27;46678;-72
2023/10/11 03:32:07;;;;;;;2.78;2.13;;;21.30;47.20;;;;;;5109830;27;45234;-72
2023/10/11 03:34:34;;;;;;;5.88;2.25;;;21.20;47.20;;;;;;5110336;27;45385;-72
2023/10/11 03:37:07;;;;;;;5.22;2.10;;;21.20;47.20;;;;;;5112080;27;45415;-72
2023/10/11 03:39:41;;;;;;;3.78;1.98;;;21.20;47.10;;;;;;5109920;27;46689;-72
2023/10/11 03:42:14;;;;;;;8.30;3.10;;;21.20;47.80;;;;;;5109796;27;45204;-73
2023/10/11 03:44:45;;;;;;;4.63;2.33;;;21.10;47.20;;;;;;5110021;27;45179;-72
2023/10/11 03:47:14;;;;;;;5.47;2.53;;;21.10;47.10;;;;;;5109943;27;45414;-72
2023/10/11 03:49:51;;;;;;;5.90;2.58;;;21.10;47.10;;;;;;5109125;27;46579;-71
2023/10/11 03:52:21;;;;;;;4.45;2.08;;;21.10;47.20;;;;;;5109403;27;45275;-72
2023/10/11 03:54:53;;;;;;;6.45;2.75;;;21.10;47.20;;;;;;5109025;27;45465;-71
2023/10/11 03:57:20;;;;;;;5.40;2.00;;;21.10;47.20;;;;;;5109194;27;45374;-72
2023/10/11 03:59:51;;;;;;;5.53;2.20;;;21.10;47.20;;;;;;5109470;27;46346;-71
2023/10/11 04:02:19;;;;;;;3.58;1.95;;;21.10;47.20;;;;;;5109487;27;45335;-72
2023/10/11 04:04:48;;;;;;;6.15;2.72;;;21.00;47.20;;;;;;5109837;27;45346;-72
2023/10/11 04:07:22;;;;;;;3.33;2.30;;;21.00;47.20;;;;;;5109712;27;45647;-72
2023/10/11 04:09:51;;;;;;;4.07;2.10;;;21.00;47.20;;;;;;5109561;27;45256;-72
2023/10/11 04:12:24;;;;;;;6.05;2.05;;;21.00;47.20;;;;;;5109375;27;46109;-72
2023/10/11 04:14:51;;;;;;;3.75;2.35;;;21.00;47.20;;;;;;5109427;27;45298;-72
2023/10/11 04:17:26;;;;;;;5.85;1.98;;;21.00;47.30;;;;;;5109634;27;45193;-72
2023/10/11 04:19:54;;;;;;;4.43;2.63;;;21.00;47.30;;;;;;5109296;27;46550;-72
2023/10/11 04:22:24;;;;;;;6.28;2.55;;;20.90;47.20;;;;;;5109269;27;45330;-72
2023/10/11 04:24:54;;;;;;;5.15;2.40;;;20.90;47.20;;;;;;5109022;27;45289;-72
2023/10/11 04:30:23;;;;;;;3.72;2.42;;;20.90;47.30;;;;;;5106292;27;45430;-72
2023/10/11 04:32:55;;;;;;;6.53;1.92;;;20.90;47.30;;;;;;5108829;27;45369;-72
2023/10/11 04:35:24;;;;;;;4.35;2.10;;;20.90;47.30;;;;;;5109098;27;45201;-72
2023/10/11 04:38:01;;;;;;;6.40;2.10;;;20.80;47.30;;;;;;5109145;27;45374;-72
2023/10/11 04:43:23;;;;;;;4.82;1.85;;;20.80;47.40;;;;;;5103487;27;45240;-72
2023/10/11 04:45:51;;;;;;;5.55;2.60;;;20.80;47.40;;;;;;5108833;27;45273;-73
2023/10/11 04:48:19;;;;;;;5.93;2.50;;;20.80;47.40;;;;;;5109195;27;45326;-71
2023/10/11 04:50:47;;;;;;;5.20;2.20;;;20.70;47.40;;;;;;5108483;27;45484;-73
2023/10/11 04:53:18;;;;;;;5.50;2.35;;;20.70;47.40;;;;;;5108878;27;45222;-72
2023/10/11 04:55:58;;;;;;;5.03;2.22;;;20.70;47.40;;;;;;5108872;27;45535;-73
2023/10/11 05:01:08;;;;;;;3.90;2.25;;;20.70;47.40;;;;;;5106517;27;45460;-73
2023/10/11 05:03:37;;;;;;;5.03;2.22;;;20.70;47.50;;;;;;5108505;27;45345;-73
2023/10/11 05:06:13;;;;;;;5.10;2.75;;;20.70;47.50;;;;;;5108730;27;45268;-73
2023/10/11 05:08:54;;;;;;;2.80;1.80;;;20.70;47.50;;;;;;5108866;27;45318;-72
2023/10/11 05:11:36;;;;;;;5.45;2.13;;;20.70;47.50;;;;;;5108591;27;46767;-73
2023/10/11 05:14:10;;;;;;;6.13;2.67;;;20.60;47.50;;;;;;5108452;27;45300;-73
2023/10/11 05:16:44;;;;;;;3.13;2.10;;;20.60;48.10;;;;;;5108477;27;45382;-73
2023/10/11 05:19:14;;;;;;;4.65;2.10;;;20.60;48.10;;;;;;5108819;27;45438;-72
2023/10/11 05:21:43;;;;;;;3.25;2.17;;;20.60;48.10;;;;;;5108084;27;45554;-73
2023/10/11 05:24:29;;;;;;;4.80;2.03;;;20.50;47.50;;;;;;5108560;27;45314;-73
2023/10/11 05:27:35;;;;;;;2.92;1.95;;;20.60;47.60;;;;;;5108343;27;45489;-73
2023/10/11 05:30:11;;;;;;;4.38;2.30;;;20.60;47.60;;;;;;5108289;27;45331;-72
2023/10/11 05:32:49;;;;;;;3.92;2.50;;;20.60;47.60;;;;;;5107834;27;45542;-72
2023/10/11 05:35:43;;;;;;;4.82;2.95;;;20.60;47.60;;;;;;5108135;27;45280;-73
2023/10/11 05:52:00;;;;;;;4.13;2.70;;;20.40;47.50;;;;;;5064980;28;45472;-73
2023/10/11 05:54:34;;;;;;;4.30;2.22;;;20.40;47.50;;;;;;5097222;27;46946;-73
2023/10/11 05:57:03;;;;;;;3.70;2.40;;;20.40;47.50;;;;;;5107719;27;45405;-73
2023/10/11 05:59:35;;;;;;;7.15;2.40;;;20.40;47.60;;;;;;5107042;27;45234;-72
2023/10/11 06:02:07;;;;;;;3.00;1.83;;;20.40;47.50;;;;;;5107337;27;45367;-73
2023/10/11 06:04:39;;;;;;;4.47;2.03;;;20.40;47.60;;;;;;5107423;27;46404;-72
2023/10/11 06:07:06;;;;;;;4.03;1.85;;;20.40;47.60;;;;;;5107407;27;45296;-72
2023/10/11 06:09:39;;;;;;;5.47;2.40;;;20.40;47.70;;;;;;5107889;27;45325;-72
2023/10/11 06:12:09;;;;;;;3.38;2.10;;;20.40;47.60;;;;;;5108107;27;45311;-72
2023/10/11 06:14:37;;;;;;;3.78;2.25;;;20.40;47.70;;;;;;5107828;27;45493;-72
2023/10/11 06:17:05;;;;;;;3.47;2.20;;;20.30;47.60;;;;;;5107317;27;45442;-72
2023/10/11 06:19:32;;;;;;;4.50;2.38;;;20.40;47.60;;;;;;5107592;27;45323;-72
2023/10/11 06:21:59;;;;;;;3.50;2.35;;;20.40;47.70;;;;;;5107560;27;45315;-72
2023/10/11 06:24:27;;;;;;;2.53;1.85;;;20.30;47.60;;;;;;5107349;27;47308;-72
2023/10/11 06:26:53;;;;;;;6.38;2.50;;;20.30;47.60;;;;;;5107188;27;45413;-73
2023/10/11 06:29:24;;;;;;;2.50;1.90;;;20.30;47.60;;;;;;5107501;27;45330;-73
2023/10/11 06:31:53;;;;;;;3.28;2.40;;;20.30;47.60;;;;;;5107436;27;45484;-72
2023/10/11 06:34:24;;;;;;;6.53;2.53;;;20.30;47.60;;;;;;5107306;27;47568;-72
2023/10/11 06:36:52;;;;;;;4.28;2.15;;;20.30;48.20;;;;;;5107072;27;45271;-72
2023/10/11 06:39:33;;;;;;;1.98;1.60;;;20.30;47.70;;;;;;5107374;27;45358;-72
2023/10/11 06:42:06;;;;;;;4.18;2.00;;;20.30;47.60;;;;;;5107414;27;45430;-74
2023/10/11 06:44:34;;;;;;;11.55;2.92;;;20.30;47.70;;;;;;5106976;27;45336;-73
2023/10/11 06:47:04;;;;;;;5.55;2.13;;;20.30;47.70;;;;;;5106896;27;45396;-72
2023/10/11 06:49:32;;;;;;;5.03;2.70;;;20.30;47.70;;;;;;5110033;27;45133;-72
2023/10/11 06:52:01;;;;;;;4.10;2.63;;;20.30;47.70;;;;;;5111019;27;45408;-72
2023/10/11 06:54:32;;;;;;;3.65;2.05;;;20.30;47.70;;;;;;5110653;27;45493;-72
2023/10/11 06:57:01;;;;;;;3.20;2.53;;;20.30;47.70;;;;;;5110922;27;45257;-73
2023/10/11 06:59:28;;;;;;;6.53;2.40;;;20.30;48.30;;;;;;5110681;27;45381;-72
2023/10/11 07:01:56;;;;;;;2.85;2.08;;;20.30;47.70;;;;;;5110596;27;45335;-73
2023/10/11 07:04:36;;;;;;;3.65;2.33;;;20.30;47.60;;;;;;5109713;27;48684;-72
2023/10/11 07:07:07;;;;;;;4.22;2.00;;;20.30;47.70;;;;;;5109929;27;45474;-72
2023/10/11 07:09:39;;;;;;;5.07;2.25;;;20.30;47.60;;;;;;5109960;27;45253;-72
2023/10/11 07:12:28;;;;;;;3.20;2.38;;;20.30;47.60;;;;;;5110717;27;45464;-72
2023/10/11 07:14:57;;;;;;;3.50;2.10;;;20.30;47.70;;;;;;5110016;27;45424;-71
2023/10/11 07:17:25;;;;;;;5.75;2.45;;;20.30;47.60;;;;;;5109751;27;45374;-72
2023/10/11 07:19:55;;;;;;;5.18;2.35;;;20.30;47.60;;;;;;5110387;27;45350;-73
2023/10/11 07:22:26;;;;;;;3.05;2.10;;;20.30;47.60;;;;;;5110591;27;45326;-72
2023/10/11 07:24:56;;;;;;;4.68;2.25;;;20.30;47.70;;;;;;5110173;27;45453;-72
2023/10/11 07:27:40;;;;;;;3.55;2.50;;;20.30;47.60;;;;;;5110137;27;45403;-72
2023/10/11 07:30:16;;;;;;;3.70;2.60;;;20.30;47.60;;;;;;5110604;27;45336;-72
2023/10/11 07:32:43;;;;;;;3.40;2.13;;;20.30;48.20;;;;;;5109951;27;45491;-72
2023/10/11 07:35:27;;;;;;;6.30;2.60;;;20.30;47.60;;;;;;5110430;27;47618;-72
2023/10/11 07:37:56;;;;;;;5.85;2.80;;;20.30;47.60;;;;;;5110289;27;45381;-72
2023/10/11 07:40:33;;;;;;;3.85;2.45;;;20.30;47.70;;;;;;5110201;27;45210;-72
2023/10/11 07:43:00;;;;;;;4.07;2.53;;;20.30;47.60;;;;;;5110705;27;45638;-72
2023/10/11 07:45:29;;;;;;;4.85;2.42;;;20.40;47.70;;;;;;5110102;27;45493;-73
2023/10/11 07:47:57;;;;;;;3.53;2.35;;;20.40;47.70;;;;;;5110480;27;45317;-72
2023/10/11 07:50:26;;;;;;;4.50;2.35;;;20.40;47.70;;;;;;5110502;27;45326;-73
2023/10/11 07:52:54;;;;;;;4.88;2.92;;;20.40;47.70;;;;;;5110760;27;45548;-71
2023/10/11 07:55:26;;;;;;;4.93;2.30;;;20.40;47.70;;;;;;5110145;27;45495;-71
2023/10/11 07:58:00;;;;;;;4.05;2.58;;;20.40;47.70;;;;;;5110385;27;45365;-72
2023/10/11 08:00:30;;;;;;;3.17;2.38;;;20.40;47.70;;;;;;5109432;27;45353;-72
2023/10/11 08:03:03;;;;;;;5.15;3.30;;;20.40;47.70;;;;;;5109681;27;45494;-72
2023/10/11 08:05:33;;;;;;;3.88;2.38;;;20.40;47.70;;;;;;5109159;27;46867;-72
2023/10/11 08:07:59;;;;;;;2.63;2.38;;;20.40;47.70;;;;;;5109073;27;45259;-72
2023/10/11 08:10:34;;;;;;;6.57;2.58;;;20.40;47.70;;;;;;5109567;27;45338;-72
2023/10/11 08:13:02;;;;;;;4.55;2.80;;;20.50;47.70;;;;;;5109801;27;45398;-73
2023/10/11 08:15:29;;;;;;;4.35;2.72;;;20.50;47.80;;;;;;5109342;27;45488;-72
2023/10/11 08:17:56;;;;;;;2.95;2.58;;;20.50;47.70;;;;;;5109671;27;45306;-72
2023/10/11 08:20:28;;;;;;;4.72;2.70;;;20.50;47.80;;;;;;5109396;27;45210;-72
2023/10/11 08:22:57;;;;;;;5.55;3.00;;;20.50;47.80;;;;;;5109715;27;45373;-72
2023/10/11 08:25:28;;;;;;;3.42;2.55;;;20.60;47.80;;;;;;5109087;27;46352;-72
2023/10/11 08:28:12;;;;;;;5.80;2.92;;;20.50;47.80;;;;;;5109372;27;45316;-71
2023/10/11 08:30:39;;;;;;;4.43;2.63;;;20.50;47.80;;;;;;5109488;27;45374;-72
2023/10/11 08:33:06;;;;;;;3.65;2.67;;;20.60;47.80;;;;;;5109105;27;45317;-71
2023/10/11 08:35:33;;;;;;;4.78;2.75;;;20.60;47.80;;;;;;5109074;27;46676;-72
2023/10/11 08:38:04;;;;;;;4.28;2.55;;;20.60;47.90;;;;;;5108386;27;45302;-71
2023/10/11 08:40:35;;;;;;;5.00;2.60;;;20.60;47.90;;;;;;5108850;27;45387;-73
2023/10/11 08:43:03;;;;;;;4.80;2.58;;;20.70;47.90;;;;;;5109223;27;45383;-71
2023/10/11 08:45:33;;;;;;;3.78;2.72;;;20.70;47.90;;;;;;5108516;27;46665;-72
2023/10/11 08:48:00;;;;;;;5.15;2.70;;;20.70;48.00;;;;;;5109109;27;45336;-72
2023/10/11 08:50:28;;;;;;;5.75;2.80;;;20.70;47.90;;;;;;5108879;27;45364;-72
2023/10/11 08:52:55;;;;;;;3.75;2.42;;;20.70;48.10;;;;;;5109159;27;45351;-72
2023/10/11 08:55:24;;;;;;;7.60;3.15;;;20.80;48.10;;;;;;5108608;27;46322;-71
2023/10/11 08:57:53;;;;;;;4.80;2.90;;;20.80;48.10;;;;;;5108801;27;45364;-72
2023/10/11 09:00:29;;;;;;;5.40;2.70;;;20.80;48.10;;;;;;5109099;27;45300;-71
2023/10/11 09:03:08;;;;;;;4.32;3.03;;;20.80;48.10;;;;;;5107561;27;44913;-71
2023/10/11 09:05:58;;;;;;;6.45;3.50;;;20.90;48.00;;;;;;5107815;27;45620;-71
2023/10/11 09:08:27;;;;;;;3.97;2.58;;;20.90;48.00;;;;;;5108020;27;45316;-71
2023/10/11 09:11:11;;;;;;;5.60;2.90;;;20.90;48.00;;;;;;5108809;27;45314;-70
2023/10/11 09:13:38;;;;;;;5.40;3.38;;;21.00;47.90;;;;;;5108218;27;45553;-72
2023/10/11 09:16:12;;;;;;;4.63;2.90;;;21.00;47.90;;;;;;5107882;27;46338;-72
2023/10/11 09:18:39;;;;;;;5.18;2.85;;;21.00;47.90;;;;;;5107998;27;45258;-72
2023/10/11 09:21:15;;;;;;;4.82;2.85;;;21.10;47.90;;;;;;5107973;27;45302;-72
2023/10/11 09:23:46;;;;;;;6.63;3.03;;;21.10;48.00;;;;;;5108232;27;45441;-71
2023/10/11 09:26:20;;;;;;;5.05;2.88;;;21.10;48.10;;;;;;5108037;27;46591;-72
2023/10/11 09:28:56;;;;;;;5.63;3.05;;;21.10;48.10;;;;;;5108176;27;45145;-71
2023/10/11 09:31:23;;;;;;;5.65;3.03;;;21.20;48.10;;;;;;5107798;27;45312;-72
2023/10/11 09:33:51;;;;;;;7.53;2.80;;;21.20;48.10;;;;;;5108547;27;45186;-73
2023/10/11 09:36:19;;;;;;;5.68;2.70;;;21.20;48.00;;;;;;5107832;27;45405;-72
2023/10/11 09:38:47;;;;;;;5.38;2.88;;;21.30;48.00;;;;;;5107902;27;45451;-72
2023/10/11 09:41:22;;;;;;;3.22;2.60;;;21.30;47.90;;;;;;5108244;27;45451;-72
2023/10/11 09:43:49;;;;;;;5.82;2.90;;;21.30;48.10;;;;;;5108510;27;45322;-72
2023/10/11 09:46:18;;;;;;;5.45;2.75;;;21.40;48.10;;;;;;5107734;27;45333;-72
2023/10/11 09:48:48;;;;;;;5.20;2.58;;;21.40;48.10;;;;;;5107677;27;45277;-71
2023/10/11 09:51:15;;;;;;;3.97;2.75;;;21.50;47.90;;;;;;5108086;27;45264;-71
2023/10/11 09:53:50;;;;;;;6.10;2.85;;;21.50;47.90;;;;;;5108030;27;45468;-72
2023/10/11 09:56:48;;;;;;;4.25;2.40;;;21.60;47.90;;;;;;5107598;27;46378;-72
2023/10/11 09:59:27;;;;;;;2.67;2.22;;;21.60;47.90;;;;;;5107591;27;45422;-72
2023/10/11 10:02:02;;;;;;;4.85;2.70;;;21.70;47.90;;;;;;5107697;27;45320;-73
2023/10/11 10:04:54;;;;;;;6.60;2.50;;;21.70;47.90;;;;;;5108032;27;45652;-72
2023/10/11 10:07:25;;;;;;;4.95;2.55;;;21.80;48.00;;;;;;5107314;27;45407;-72
2023/10/11 10:09:52;;;;;;;6.00;2.65;;;21.90;48.00;;;;;;5107499;27;45263;-71
2023/10/11 10:12:21;;;;;;;3.47;2.58;;;21.90;48.00;;;;;;5108100;27;45393;-71
2023/10/11 10:14:53;;;;;;;6.72;2.90;;;22.00;48.00;;;;;;5107743;27;45567;-72
2023/10/11 10:17:19;;;;;;;6.82;2.85;;;22.10;48.00;;;;;;5107734;27;45323;-72
2023/10/11 10:19:47;;;;;;;3.30;2.40;;;22.10;47.90;;;;;;5107562;27;45378;-72
2023/10/11 10:22:21;;;;;;;4.30;2.25;;;22.20;47.90;;;;;;5107312;27;45330;-73
2023/10/11 10:24:48;;;;;;;2.63;2.30;;;22.20;47.90;;;;;;5107152;27;45200;-72
2023/10/11 10:27:40;;;;;;;6.50;2.88;;;22.30;47.90;;;;;;5107310;27;45486;-72
2023/10/11 10:30:10;;;;;;;4.25;2.70;;;22.30;48.40;;;;;;5097450;27;45247;-72
2023/10/11 10:32:38;;;;;;;5.85;2.80;;;22.40;47.80;;;;;;5106929;27;45361;-72
2023/10/11 10:35:25;;;;;;;4.70;2.58;;;22.50;47.70;;;;;;5107340;27;45592;-72
2023/10/11 10:37:55;;;;;;;4.40;2.65;;;22.60;47.70;;;;;;5107138;27;45549;-71
2023/10/11 10:40:24;;;;;;;5.40;2.80;;;22.70;47.70;;;;;;5107063;27;45343;-71
2023/10/11 10:43:23;;;;;;;4.20;2.10;;;22.70;47.60;;;;;;5107265;27;45370;-72
2023/10/11 10:45:49;;;;;;;4.05;2.67;;;22.80;47.50;;;;;;5107418;27;45295;-72
2023/10/11 10:48:18;;;;;;;3.35;1.90;;;22.90;47.50;;;;;;5107306;27;46375;-71
2023/10/11 10:50:50;;;;;;;5.90;2.63;;;23.00;47.40;;;;;;5107091;27;45371;-71
2023/10/11 10:53:17;;;;;;;5.85;2.70;;;23.10;47.50;;;;;;5107047;27;45315;-71
2023/10/11 10:55:44;;;;;;;3.38;2.20;;;23.20;47.30;;;;;;5107198;27;45324;-72
2023/10/11 10:58:18;;;;;;;3.42;2.42;;;23.20;47.10;;;;;;5106361;27;45432;-71
2023/10/11 11:00:47;;;;;;;2.60;1.98;;;23.30;47.20;;;;;;5106125;27;45479;-71
2023/10/11 11:03:23;;;;;;;6.03;2.85;;;23.40;46.90;;;;;;5107112;27;45287;-72
2023/10/11 11:05:55;;;;;;;3.85;2.28;;;23.50;47.00;;;;;;5107235;27;45303;-71
2023/10/11 11:08:27;;;;;;;3.97;2.47;;;23.60;46.90;;;;;;5106700;27;45575;-71
2023/10/11 11:10:56;;;;;;;5.25;2.20;;;23.60;46.60;;;;;;5106577;27;45425;-72
2023/10/11 11:13:26;;;;;;;5.03;2.33;;;23.70;46.70;;;;;;5106949;27;45330;-72
2023/10/11 11:15:55;;;;;;;4.35;2.20;;;23.80;46.70;;;;;;5106818;27;45457;-71
2023/10/11 11:18:32;;;;;;;4.60;2.78;;;23.90;46.70;;;;;;5106506;27;45732;-71
2023/10/11 11:21:17;;;;;;;3.70;2.03;;;24.00;46.70;;;;;;5106641;27;45272;-73
2023/10/11 11:23:44;;;;;;;3.00;2.17;;;24.00;46.60;;;;;;5106861;27;45384;-73
2023/10/11 11:26:15;;;;;;;7.22;2.47;;;24.10;46.70;;;;;;5106867;27;45363;-72
2023/10/11 11:28:47;;;;;;;2.35;1.88;;;24.20;46.50;;;;;;5106290;27;45338;-72
2023/10/11 11:31:30;;;;;;;3.72;2.33;;;24.30;46.40;;;;;;5106225;27;45463;-72
2023/10/11 11:34:11;;;;;;;5.68;2.42;;;24.30;46.30;;;;;;5106639;27;45278;-72
2023/10/11 11:36:40;;;;;;;5.35;2.38;;;24.40;46.30;;;;;;5109584;27;45545;-72
2023/10/11 11:39:24;;;;;;;3.13;2.17;;;24.50;46.20;;;;;;5110044;27;46716;-73
2023/10/11 11:41:52;;;;;;;5.90;1.98;;;24.60;46.10;;;;;;5109835;27;45228;-73
2023/10/11 11:44:21;;;;;;;4.55;2.38;;;24.70;46.00;;;;;;5118494;27;45464;-73
2023/10/11 11:46:49;;;;;;;5.38;2.17;;;24.70;45.90;;;;;;5131855;27;45306;-73
2023/10/11 11:49:22;;;;;;;3.63;2.47;;;24.80;45.90;;;;;;5130835;27;45348;-73
2023/10/11 11:51:51;;;;;;;5.47;2.20;;;24.90;45.90;;;;;;5130646;27;45129;-73
2023/10/11 11:54:19;;;;;;;4.63;2.38;;;24.90;45.80;;;;;;5130672;27;45530;-73
2023/10/11 11:56:45;;;;;;;2.83;2.13;;;25.00;45.70;;;;;;5130623;27;45361;-73
2023/10/11 11:59:18;;;;;;;4.57;2.40;;;25.10;45.70;;;;;;5130092;27;45434;-74
2023/10/11 12:01:49;;;;;;;5.72;2.70;;;25.10;45.70;;;;;;5130199;27;45330;-73
2023/10/11 12:04:23;;;;;;;4.03;2.25;;;25.20;45.70;;;;;;5130457;27;45286;-73
2023/10/11 12:06:49;;;;;;;2.70;2.08;;;25.30;46.10;;;;;;5130289;27;45248;-73
2023/10/11 12:09:20;;;;;;;5.05;2.45;;;25.30;45.40;;;;;;5130460;27;47105;-73
2023/10/11 12:11:49;;;;;;;9.90;2.28;;;25.40;45.30;;;;;;5129984;27;45465;-73
2023/10/11 12:14:16;;;;;;;3.25;2.20;;;25.50;45.20;;;;;;5130088;27;45174;-73
2023/10/11 12:16:43;;;;;;;4.45;2.60;;;25.50;45.20;;;;;;5130236;27;45252;-73
2023/10/11 12:19:13;;;;;;;2.53;1.98;;;25.60;45.10;;;;;;5129944;27;46719;-73
2023/10/11 12:21:40;;;;;;;3.65;2.10;;;25.60;45.10;;;;;;5129815;27;45308;-73
2023/10/11 12:24:11;;;;;;;3.60;2.30;;;25.70;44.90;;;;;;5130228;27;45322;-72
2023/10/11 12:26:40;;;;;;;3.70;2.13;;;25.70;44.90;;;;;;5129531;27;45558;-73
2023/10/11 12:29:09;;;;;;;5.50;2.28;;;25.80;44.80;;;;;;5129177;27;46692;-73
2023/10/11 12:31:38;;;;;;;4.20;2.17;;;25.90;44.80;;;;;;5129637;27;45558;-72
2023/10/11 12:34:05;;;;;;;4.22;2.13;;;25.90;44.70;;;;;;5129943;27;45262;-73
2023/10/11 12:36:33;;;;;;;3.70;2.17;;;26.00;44.70;;;;;;5129814;27;45587;-73
2023/10/11 12:39:01;;;;;;;4.40;2.20;;;26.00;44.50;;;;;;5129645;27;46394;-73
2023/10/11 12:41:28;;;;;;;4.00;2.28;;;26.10;44.60;;;;;;5129473;27;46355;-74
2023/10/11 12:43:54;;;;;;;4.75;2.33;;;26.20;44.50;;;;;;5129843;27;45309;-74
2023/10/11 12:46:21;;;;;;;5.05;2.20;;;26.20;44.40;;;;;;5129515;27;45445;-74
2023/10/11 12:48:54;;;;;;;2.85;2.10;;;26.30;44.40;;;;;;5129561;27;47288;-74
2023/10/11 12:51:22;;;;;;;4.35;2.30;;;26.30;44.30;;;;;;5129451;27;46513;-73
2023/10/11 12:53:54;;;;;;;4.18;2.30;;;26.40;44.10;;;;;;5129853;27;45373;-73
2023/10/11 12:56:22;;;;;;;7.15;2.25;;;26.40;43.90;;;;;;5129819;27;45326;-74
2023/10/11 12:58:50;;;;;;;3.92;2.17;;;26.50;43.90;;;;;;5126755;27;45353;-73
2023/10/11 13:01:25;;;;;;;2.60;2.00;;;26.50;43.70;;;;;;5129313;27;45503;-74
2023/10/11 13:04:05;;;;;;;6.32;2.20;;;26.50;43.60;;;;;;5129209;27;45354;-73
2023/10/11 13:06:32;;;;;;;3.67;2.10;;;26.60;43.60;;;;;;5129616;27;45320;-73
2023/10/11 13:09:00;;;;;;;4.03;2.05;;;26.60;43.60;;;;;;5129222;27;46300;-74
2023/10/11 13:11:31;;;;;;;5.93;2.30;;;26.70;43.60;;;;;;5129005;27;45260;-74
2023/10/11 13:14:01;;;;;;;3.92;2.17;;;26.70;43.50;;;;;;5129438;27;45350;-73
2023/10/11 13:16:28;;;;;;;4.53;2.47;;;26.80;43.50;;;;;;5129232;27;45365;-73
2023/10/11 13:18:59;;;;;;;4.10;1.98;;;26.80;43.30;;;;;;5128929;27;45632;-73
2023/10/11 13:21:28;;;;;;;3.25;2.05;;;26.90;43.40;;;;;;5129197;27;45371;-73
2023/10/11 13:23:58;;;;;;;4.00;2.10;;;26.90;43.30;;;;;;5129349;27;45183;-72
2023/10/11 13:26:32;;;;;;;4.13;2.45;;;27.00;43.20;;;;;;5128126;27;45366;-71
2023/10/11 13:29:01;;;;;;;4.20;1.83;;;27.00;43.30;;;;;;5122295;27;45369;-69